createdAt,value
2022-07-31T00:00:15.161Z,95959.47
2022-07-31T00:01:18.061Z,95961.50
2022-07-31T00:02:21.272Z,95965.50
2022-07-31T00:03:24.206Z,95969.56
2022-07-31T00:04:28.303Z,95964.00
2022-07-31T00:05:32.025Z,95970.78
2022-07-31T00:06:41.369Z,95962.44
2022-07-31T00:07:44.489Z,95966.50
2022-07-31T00:08:46.448Z,95967.72
2022-07-31T00:09:49.457Z,95960.66
2022-07-31T00:10:55.201Z,95962.66
2022-07-31T00:11:58.129Z,95961.63
2022-07-31T00:13:00.189Z,95957.28
2022-07-31T00:14:03.397Z,95960.56
2022-07-31T00:15:07.686Z,95959.78
2022-07-31T00:16:10.677Z,95961.06
2022-07-31T00:17:12.647Z,95956.72
2022-07-31T00:18:16.997Z,95966.31
2022-07-31T00:19:18.924Z,95957.72
2022-07-31T00:20:21.951Z,95953.41
2022-07-31T00:21:24.544Z,95956.19
2022-07-31T00:22:27.538Z,95950.63
2022-07-31T00:23:29.682Z,95948.31
2022-07-31T00:24:32.755Z,95950.34
2022-07-31T00:25:34.761Z,95953.13
2022-07-31T00:26:37.815Z,95961.47
2022-07-31T00:27:40.490Z,95952.34
2022-07-31T00:28:43.389Z,95952.34
2022-07-31T00:29:45.375Z,95947.56
2022-07-31T00:30:49.197Z,95946.03
2022-07-31T00:31:51.147Z,95946.03
2022-07-31T00:32:54.810Z,95950.81
2022-07-31T00:33:58.103Z,95948.03
2022-07-31T00:35:01.515Z,95948.50
2022-07-31T00:36:04.805Z,95957.63
2022-07-31T00:37:07.720Z,95944.97
2022-07-31T00:38:27.318Z,95942.19
2022-07-31T00:39:30.979Z,95942.66
2022-07-31T00:40:33.370Z,95949.50
2022-07-31T00:41:41.170Z,95943.94
2022-07-31T00:42:43.885Z,95943.16
2022-07-31T00:43:46.805Z,95947.97
2022-07-31T00:44:49.329Z,95950.75
2022-07-31T00:45:59.066Z,95943.66
2022-07-31T00:47:02.661Z,95951.97
2022-07-31T00:48:06.523Z,95946.44
2022-07-31T00:49:11.194Z,95950.47
2022-07-31T00:50:13.363Z,95948.91
2022-07-31T00:51:18.052Z,95948.91
2022-07-31T00:52:20.394Z,95954.47
2022-07-31T00:53:23.436Z,95950.16
2022-07-31T00:54:25.834Z,95952.16
2022-07-31T00:55:28.778Z,95946.63
2022-07-31T00:56:31.775Z,95955.72
2022-07-31T00:57:34.205Z,95952.16
2022-07-31T00:58:37.182Z,95956.19
2022-07-31T00:59:39.052Z,95953.88
2022-07-31T01:00:42.028Z,95951.59
2022-07-31T01:01:44.181Z,95956.41
2022-07-31T01:02:47.066Z,95954.09
2022-07-31T01:03:49.396Z,95947.78
2022-07-31T01:04:53.661Z,95950.28
2022-07-31T01:05:55.718Z,95946.72
2022-07-31T01:06:59.406Z,95954.28
2022-07-31T01:08:01.498Z,95953.53
2022-07-31T01:09:04.637Z,95956.00
2022-07-31T01:10:09.588Z,95952.47
2022-07-31T01:11:15.144Z,95957.28
2022-07-31T01:12:22.650Z,95955.25
2022-07-31T01:13:34.116Z,95956.50
2022-07-31T01:14:40.368Z,95952.19
2022-07-31T01:15:43.895Z,95948.19
2022-07-31T01:16:48.692Z,95946.63
2022-07-31T01:17:53.939Z,95948.19
2022-07-31T01:18:57.714Z,95950.16
2022-07-31T01:20:02.156Z,95948.19
2022-07-31T01:21:08.613Z,95947.88
2022-07-31T01:22:33.654Z,95947.88
2022-07-31T01:23:59.447Z,95950.38
2022-07-31T01:25:17.778Z,95947.59
2022-07-31T01:26:37.280Z,95944.53
2022-07-31T01:27:59.789Z,95943.78
2022-07-31T01:29:14.159Z,95945.28
2022-07-31T01:30:19.099Z,95952.88
2022-07-31T01:31:27.586Z,95950.84
2022-07-31T01:32:38.594Z,95943.00
2022-07-31T01:33:48.836Z,95940.22
2022-07-31T01:34:56.259Z,95947.03
2022-07-31T01:36:08.157Z,95941.94
2022-07-31T01:37:16.958Z,95946.75
2022-07-31T01:38:22.424Z,95952.31
2022-07-31T01:39:27.201Z,95951.06
2022-07-31T01:40:43.065Z,95949.53
2022-07-31T01:41:49.246Z,95946.44
2022-07-31T01:42:55.912Z,95943.69
2022-07-31T01:44:00.798Z,95944.19
2022-07-31T01:45:07.239Z,95948.94
2022-07-31T01:46:13.806Z,95935.06
2022-07-31T01:47:20.284Z,95940.31
2022-07-31T01:48:24.150Z,95941.13
2022-07-31T01:49:28.221Z,95940.31
2022-07-31T01:50:42.848Z,95940.31
2022-07-31T01:51:48.696Z,95935.56
2022-07-31T01:52:52.840Z,95934.78
2022-07-31T01:53:56.095Z,95935.28
2022-07-31T01:55:00.873Z,95933.72
2022-07-31T01:56:04.471Z,95938.53
2022-07-31T01:57:17.239Z,95927.88
2022-07-31T01:58:25.190Z,95934.69
2022-07-31T01:59:29.213Z,95941.50
2022-07-31T02:00:50.567Z,95937.47
2022-07-31T02:01:54.099Z,95935.16
2022-07-31T02:02:58.723Z,95947.06
2022-07-31T02:04:12.757Z,95942.75
2022-07-31T02:05:17.226Z,95937.94
2022-07-31T02:06:20.622Z,95936.72
2022-07-31T02:07:25.249Z,95935.94
2022-07-31T02:08:28.223Z,95942.75
2022-07-31T02:09:34.197Z,95943.50
2022-07-31T02:10:37.931Z,95940.72
2022-07-31T02:11:53.496Z,95941.50
2022-07-31T02:12:59.861Z,95935.16
2022-07-31T02:14:04.079Z,95942.75
2022-07-31T02:15:12.403Z,95947.06
2022-07-31T02:16:21.548Z,95935.16
2022-07-31T02:17:28.391Z,95943.50
2022-07-31T02:18:52.069Z,95928.84
2022-07-31T02:20:00.389Z,95945.50
2022-07-31T02:21:04.402Z,95939.19
2022-07-31T02:22:07.185Z,95936.41
2022-07-31T02:23:11.913Z,95934.88
2022-07-31T02:24:15.053Z,95930.59
2022-07-31T02:25:17.210Z,95942.16
2022-07-31T02:26:21.054Z,95944.94
2022-07-31T02:27:53.672Z,95941.41
2022-07-31T02:28:50.092Z,95943.41
2022-07-31T02:29:53.889Z,95942.66
2022-07-31T02:30:58.849Z,95940.66
2022-07-31T02:32:05.609Z,95941.13
2022-07-31T02:33:10.322Z,95941.13
2022-07-31T02:34:15.132Z,95940.34
2022-07-31T02:35:18.320Z,95943.88
2022-07-31T02:36:23.291Z,95941.13
2022-07-31T02:37:27.045Z,95941.13
2022-07-31T02:38:31.117Z,95938.34
2022-07-31T02:39:35.458Z,95942.38
2022-07-31T02:40:41.179Z,95939.59
2022-07-31T02:41:47.124Z,95941.13
2022-07-31T02:42:50.005Z,95939.59
2022-07-31T02:43:53.574Z,95934.03
2022-07-31T02:44:57.686Z,95938.84
2022-07-31T02:46:02.827Z,95936.53
2022-07-31T02:47:07.024Z,95942.09
2022-07-31T02:48:10.930Z,95942.09
2022-07-31T02:49:17.619Z,95937.00
2022-07-31T02:50:21.036Z,95941.31
2022-07-31T02:51:27.303Z,95939.78
2022-07-31T02:52:30.350Z,95947.34
2022-07-31T02:53:34.558Z,95935.94
2022-07-31T02:54:39.468Z,95947.81
2022-07-31T02:55:45.184Z,95941.22
2022-07-31T02:56:47.928Z,95937.69
2022-07-31T02:57:51.319Z,95935.38
2022-07-31T02:58:55.207Z,95940.94
2022-07-31T03:00:03.241Z,95939.41
2022-07-31T03:01:07.067Z,95931.53
2022-07-31T03:02:13.181Z,95930.78
2022-07-31T03:03:18.312Z,95933.09
2022-07-31T03:04:21.354Z,95926.50
2022-07-31T03:05:23.357Z,95925.72
2022-07-31T03:06:26.494Z,95927.72
2022-07-31T03:07:28.545Z,95924.47
2022-07-31T03:08:32.078Z,95920.44
2022-07-31T03:09:38.856Z,95925.22
2022-07-31T03:11:18.850Z,95924.47
2022-07-31T03:12:21.497Z,95928.00
2022-07-31T03:13:27.368Z,95928.00
2022-07-31T03:14:32.713Z,95937.09
2022-07-31T03:15:37.840Z,95928.00
2022-07-31T03:16:43.092Z,95937.84
2022-07-31T03:17:49.130Z,95940.63
2022-07-31T03:18:57.598Z,95932.03
2022-07-31T03:20:00.696Z,95936.53
2022-07-31T03:21:03.308Z,95935.00
2022-07-31T03:22:06.697Z,95938.25
2022-07-31T03:23:11.411Z,95934.25
2022-07-31T03:24:23.772Z,95932.69
2022-07-31T03:25:26.591Z,95938.25
2022-07-31T03:26:30.233Z,95940.25
2022-07-31T03:27:34.641Z,95943.81
2022-07-31T03:28:37.839Z,95941.53
2022-07-31T03:29:43.285Z,95942.28
2022-07-31T03:30:47.251Z,95936.72
2022-07-31T03:31:49.759Z,95939.50
2022-07-31T03:32:54.489Z,95944.78
2022-07-31T03:33:57.846Z,95937.69
2022-07-31T03:34:59.780Z,95936.16
2022-07-31T03:36:02.679Z,95940.19
2022-07-31T03:37:05.636Z,95949.28
2022-07-31T03:38:41.217Z,95940.94
2022-07-31T03:39:31.781Z,95941.69
2022-07-31T03:40:39.324Z,95941.69
2022-07-31T03:41:42.399Z,95938.94
2022-07-31T03:42:44.651Z,95936.91
2022-07-31T03:43:48.753Z,95934.13
2022-07-31T03:44:56.337Z,95938.44
2022-07-31T03:46:00.774Z,95938.94
2022-07-31T03:47:03.847Z,95939.41
2022-07-31T03:48:09.545Z,95937.13
2022-07-31T03:49:11.778Z,95928.78
2022-07-31T03:50:17.264Z,95937.13
2022-07-31T03:51:20.311Z,95930.81
2022-07-31T03:52:23.702Z,95934.34
2022-07-31T03:53:26.678Z,95926.00
2022-07-31T03:54:29.757Z,95931.56
2022-07-31T03:55:43.697Z,95934.34
2022-07-31T03:56:50.287Z,95926.00
2022-07-31T03:57:55.072Z,95931.56
2022-07-31T03:58:57.417Z,95929.56
2022-07-31T04:00:04.060Z,95928.78
2022-07-31T04:01:10.508Z,95926.78
2022-07-31T04:02:14.794Z,95923.22
2022-07-31T04:03:32.012Z,95925.25
2022-07-31T04:04:53.060Z,95926.00
2022-07-31T04:05:56.745Z,95926.00
2022-07-31T04:06:59.934Z,95926.00
2022-07-31T04:08:03.442Z,95926.00
2022-07-31T04:09:15.600Z,95931.56
2022-07-31T04:10:22.200Z,95931.56
2022-07-31T04:11:24.296Z,95933.59
2022-07-31T04:12:27.191Z,95935.56
2022-07-31T04:13:29.114Z,95934.03
2022-07-31T04:14:34.056Z,95929.25
2022-07-31T04:15:35.991Z,95933.28
2022-07-31T04:16:38.920Z,95934.03
2022-07-31T04:17:42.072Z,95932.50
2022-07-31T04:18:50.755Z,95935.78
2022-07-31T04:19:54.601Z,95935.00
2022-07-31T04:20:56.619Z,95939.03
2022-07-31T04:21:59.829Z,95935.47
2022-07-31T04:23:03.902Z,95934.72
2022-07-31T04:24:42.301Z,95935.94
2022-07-31T04:26:06.964Z,95933.94
2022-07-31T04:27:13.435Z,95940.75
2022-07-31T04:28:18.174Z,95937.97
2022-07-31T04:29:21.259Z,95951.09
2022-07-31T04:30:24.162Z,95944.00
2022-07-31T04:31:26.412Z,95949.25
2022-07-31T04:32:30.361Z,95944.91
2022-07-31T04:33:46.583Z,95954.03
2022-07-31T04:34:54.315Z,95945.72
2022-07-31T04:35:56.290Z,95958.78
2022-07-31T04:36:59.256Z,95957.56
2022-07-31T04:38:01.514Z,95953.56
2022-07-31T04:39:08.380Z,95946.47
2022-07-31T04:40:11.258Z,95956.34
2022-07-31T04:41:14.676Z,95948.78
2022-07-31T04:42:16.542Z,95950.31
2022-07-31T04:43:19.599Z,95953.84
2022-07-31T04:44:21.532Z,95955.38
2022-07-31T04:45:32.216Z,95955.66
2022-07-31T04:46:34.191Z,95950.88
2022-07-31T04:47:38.575Z,95957.22
2022-07-31T04:48:40.783Z,95949.16
2022-07-31T04:49:46.523Z,95950.69
2022-07-31T04:50:52.627Z,95951.00
2022-07-31T04:51:55.508Z,95956.06
2022-07-31T04:52:57.571Z,95946.50
2022-07-31T04:54:02.470Z,95948.00
2022-07-31T04:55:05.307Z,95946.28
2022-07-31T04:56:25.944Z,95946.88
2022-07-31T04:57:28.897Z,95948.41
2022-07-31T04:58:30.895Z,95951.19
2022-07-31T04:59:57.802Z,95955.97
2022-07-31T05:00:56.850Z,95946.88
2022-07-31T05:01:59.842Z,95941.31
2022-07-31T05:03:01.816Z,95942.56
2022-07-31T05:04:06.659Z,95948.88
2022-07-31T05:05:09.128Z,95946.09
2022-07-31T05:06:16.935Z,95946.09
2022-07-31T05:07:18.833Z,95946.88
2022-07-31T05:08:21.786Z,95945.34
2022-07-31T05:09:25.652Z,95944.09
2022-07-31T05:10:52.475Z,95938.53
2022-07-31T05:11:55.386Z,95948.97
2022-07-31T05:12:57.816Z,95940.47
2022-07-31T05:14:02.271Z,95941.13
2022-07-31T05:15:06.154Z,95935.94
2022-07-31T05:16:13.196Z,95939.38
2022-07-31T05:17:16.372Z,95937.25
2022-07-31T05:18:43.512Z,95936.94
2022-07-31T05:20:05.580Z,95936.06
2022-07-31T05:21:21.881Z,95934.91
2022-07-31T05:22:33.244Z,95939.28
2022-07-31T05:23:59.382Z,95946.75
2022-07-31T05:25:20.412Z,95944.81
2022-07-31T05:26:23.273Z,95939.50
2022-07-31T05:27:26.233Z,95945.34
2022-07-31T05:28:34.080Z,95949.97
2022-07-31T05:29:37.883Z,95946.91
2022-07-31T05:30:40.009Z,95947.31
2022-07-31T05:32:00.554Z,95950.22
2022-07-31T05:33:05.390Z,95955.63
2022-07-31T05:34:08.536Z,95955.22
2022-07-31T05:35:10.473Z,95950.84
2022-07-31T05:36:14.035Z,95947.19
2022-07-31T05:37:19.012Z,95949.13
2022-07-31T05:38:21.532Z,95954.09
2022-07-31T05:39:42.545Z,95957.56
2022-07-31T05:41:23.535Z,95951.44
2022-07-31T05:42:45.436Z,95958.72
2022-07-31T05:44:08.125Z,95959.97
2022-07-31T05:45:16.733Z,95961.22
2022-07-31T05:46:19.882Z,95960.44
2022-07-31T05:47:22.801Z,95963.22
2022-07-31T05:48:25.308Z,95971.56
2022-07-31T05:49:29.054Z,95964.50
2022-07-31T05:50:34.699Z,95968.03
2022-07-31T05:51:39.717Z,95956.63
2022-07-31T05:52:42.939Z,95961.41
2022-07-31T05:54:06.090Z,95961.13
2022-07-31T05:55:26.755Z,95958.34
2022-07-31T05:56:47.499Z,95961.59
2022-07-31T05:57:53.421Z,95965.16
2022-07-31T05:58:56.767Z,95963.16
2022-07-31T05:59:58.691Z,95966.41
2022-07-31T06:01:03.166Z,95958.81
2022-07-31T06:02:05.658Z,95965.63
2022-07-31T06:03:25.220Z,95963.34
2022-07-31T06:04:38.449Z,95962.09
2022-07-31T06:05:42.558Z,95963.34
2022-07-31T06:06:44.484Z,95962.84
2022-07-31T06:07:51.961Z,95957.78
2022-07-31T06:08:55.475Z,95963.34
2022-07-31T06:09:58.316Z,95964.59
2022-07-31T06:11:01.867Z,95967.38
2022-07-31T06:12:05.717Z,95974.44
2022-07-31T06:13:08.988Z,95972.91
2022-07-31T06:14:10.987Z,95972.91
2022-07-31T06:15:36.326Z,95969.38
2022-07-31T06:16:39.561Z,95979.22
2022-07-31T06:17:44.403Z,95972.91
2022-07-31T06:19:04.101Z,95972.16
2022-07-31T06:20:08.120Z,95978.47
2022-07-31T06:22:13.866Z,95975.69
2022-07-31T06:23:23.074Z,95975.69
2022-07-31T06:24:58.420Z,95980.00
2022-07-31T06:26:02.654Z,95978.47
2022-07-31T06:27:06.033Z,95967.38
2022-07-31T06:28:26.055Z,95967.38
2022-07-31T06:29:43.923Z,95970.16
2022-07-31T06:30:48.644Z,95969.38
2022-07-31T06:31:50.652Z,95971.66
2022-07-31T06:32:53.800Z,95970.16
2022-07-31T06:33:57.085Z,95970.16
2022-07-31T06:35:05.045Z,95974.44
2022-07-31T06:36:20.530Z,95971.19
2022-07-31T06:37:32.375Z,95973.97
2022-07-31T06:38:37.193Z,95970.44
2022-07-31T06:40:02.150Z,95970.44
2022-07-31T06:41:47.157Z,95971.19
2022-07-31T06:43:10.522Z,95971.94
2022-07-31T06:44:33.920Z,95971.94
2022-07-31T06:45:51.999Z,95974.72
2022-07-31T06:47:16.153Z,95966.41
2022-07-31T06:48:37.913Z,95971.94
2022-07-31T06:49:44.693Z,95967.16
2022-07-31T06:50:48.480Z,95969.16
2022-07-31T06:52:15.942Z,95977.50
2022-07-31T06:53:18.860Z,95971.94
2022-07-31T06:54:22.347Z,95973.22
2022-07-31T06:55:29.684Z,95977.50
2022-07-31T06:56:32.194Z,95979.53
2022-07-31T06:57:35.744Z,95977.50
2022-07-31T06:58:37.688Z,95978.75
2022-07-31T06:59:40.974Z,95980.00
2022-07-31T07:00:44.448Z,95982.78
2022-07-31T07:01:46.492Z,95987.09
2022-07-31T07:02:49.498Z,95985.53
2022-07-31T07:03:52.532Z,95991.09
2022-07-31T07:04:56.377Z,95987.56
2022-07-31T07:06:08.492Z,96000.69
2022-07-31T07:07:10.499Z,95989.59
2022-07-31T07:08:13.402Z,95989.59
2022-07-31T07:09:16.791Z,95986.81
2022-07-31T07:10:21.108Z,95994.38
2022-07-31T07:11:35.024Z,95994.38
2022-07-31T07:12:37.982Z,95992.34
2022-07-31T07:13:44.995Z,95992.34
2022-07-31T07:14:49.978Z,95995.13
2022-07-31T07:15:52.134Z,95990.34
2022-07-31T07:16:58.754Z,95989.59
2022-07-31T07:18:00.697Z,95996.38
2022-07-31T07:19:10.662Z,95989.59
2022-07-31T07:20:14.491Z,95983.25
2022-07-31T07:21:16.656Z,95985.53
2022-07-31T07:22:19.804Z,95976.94
2022-07-31T07:23:33.532Z,95985.53
2022-07-31T07:25:05.798Z,95987.09
2022-07-31T07:26:09.966Z,95979.22
2022-07-31T07:27:12.935Z,95980.00
2022-07-31T07:28:30.713Z,95981.53
2022-07-31T07:29:37.468Z,95981.53
2022-07-31T07:30:39.838Z,95978.75
2022-07-31T07:31:42.969Z,95981.53
2022-07-31T07:32:45.211Z,95970.44
2022-07-31T07:33:48.878Z,95981.03
2022-07-31T07:34:59.788Z,95983.06
2022-07-31T07:36:24.820Z,95971.19
2022-07-31T07:37:50.888Z,95977.78
2022-07-31T07:38:55.043Z,95983.34
2022-07-31T07:40:03.535Z,95976.53
2022-07-31T07:41:06.137Z,95973.00
2022-07-31T07:42:10.561Z,95975.03
2022-07-31T07:43:12.479Z,95976.53
2022-07-31T07:44:15.589Z,95973.28
2022-07-31T07:45:17.956Z,95969.28
2022-07-31T07:46:21.661Z,95971.56
2022-07-31T07:48:02.860Z,95973.09
2022-07-31T07:48:51.190Z,95969.06
2022-07-31T07:50:01.213Z,95972.13
2022-07-31T07:51:36.208Z,95967.16
2022-07-31T07:53:17.239Z,95966.19
2022-07-31T07:54:55.393Z,95970.00
2022-07-31T07:56:17.630Z,95962.72
2022-07-31T07:57:45.344Z,95964.28
2022-07-31T07:59:15.066Z,95961.78
2022-07-31T08:00:37.213Z,95970.41
2022-07-31T08:01:40.588Z,95967.88
2022-07-31T08:03:50.125Z,95963.88
2022-07-31T08:04:17.005Z,95959.84
2022-07-31T08:05:19.028Z,95962.91
2022-07-31T08:06:23.317Z,95959.66
2022-07-31T08:07:41.867Z,95955.91
2022-07-31T08:09:08.757Z,95964.03
2022-07-31T08:10:29.215Z,95963.09
2022-07-31T08:11:41.432Z,95956.84
2022-07-31T08:12:54.755Z,95965.75
2022-07-31T08:14:16.279Z,95968.34
2022-07-31T08:15:36.842Z,95960.78
2022-07-31T08:16:57.704Z,95958.28
2022-07-31T08:17:59.778Z,95962.38
2022-07-31T08:19:04.270Z,95964.94
2022-07-31T08:20:08.261Z,95958.72
2022-07-31T08:21:11.396Z,95960.28
2022-07-31T08:22:14.326Z,95959.34
2022-07-31T08:23:18.204Z,95960.66
2022-07-31T08:24:21.864Z,95950.59
2022-07-31T08:25:23.936Z,95959.50
2022-07-31T08:26:48.104Z,95961.56
2022-07-31T08:27:51.771Z,95952.53
2022-07-31T08:28:58.317Z,95958.66
2022-07-31T08:30:08.418Z,95952.09
2022-07-31T08:31:11.418Z,95951.16
2022-07-31T08:32:26.114Z,95950.91
2022-07-31T08:33:47.539Z,95944.41
2022-07-31T08:34:49.849Z,95952.22
2022-07-31T08:35:53.057Z,95941.88
2022-07-31T08:36:55.795Z,95943.41
2022-07-31T08:38:03.740Z,95949.56
2022-07-31T08:39:17.642Z,95947.06
2022-07-31T08:40:42.861Z,95950.09
2022-07-31T08:41:45.796Z,95951.63
2022-07-31T08:42:49.021Z,95952.38
2022-07-31T08:44:02.369Z,95949.88
2022-07-31T08:45:10.757Z,95949.13
2022-07-31T08:46:20.583Z,95949.13
2022-07-31T08:47:26.726Z,95955.47
2022-07-31T08:48:33.262Z,95949.88
2022-07-31T08:49:39.878Z,95958.25
2022-07-31T08:50:49.759Z,95954.19
2022-07-31T08:52:19.280Z,95960.25
2022-07-31T08:53:43.739Z,95948.91
2022-07-31T08:54:54.015Z,95951.97
2022-07-31T08:55:59.795Z,95950.22
2022-07-31T08:57:05.368Z,95944.66
2022-07-31T08:58:17.189Z,95949.25
2022-07-31T08:59:19.992Z,95945.47
2022-07-31T09:00:25.188Z,95938.66
2022-07-31T09:01:28.251Z,95945.75
2022-07-31T09:02:32.373Z,95938.91
2022-07-31T09:04:10.442Z,95939.19
2022-07-31T09:05:13.205Z,95944.75
2022-07-31T09:06:16.992Z,95945.53
2022-07-31T09:07:19.034Z,95941.50
2022-07-31T09:08:22.587Z,95943.00
2022-07-31T09:09:26.228Z,95945.31
2022-07-31T09:10:50.392Z,95941.25
2022-07-31T09:11:54.895Z,95941.53
2022-07-31T09:13:26.502Z,95938.75
2022-07-31T09:14:32.255Z,95938.75
2022-07-31T09:15:40.329Z,95941.81
2022-07-31T09:16:47.011Z,95932.22
2022-07-31T09:17:54.038Z,95938.81
2022-07-31T09:18:57.284Z,95933.53
2022-07-31T09:20:01.384Z,95936.59
2022-07-31T09:21:08.457Z,95931.78
2022-07-31T09:22:21.268Z,95933.28
2022-07-31T09:23:25.488Z,95936.09
2022-07-31T09:24:39.372Z,95931.78
2022-07-31T09:25:52.729Z,95925.44
2022-07-31T09:27:03.224Z,95929.00
2022-07-31T09:28:09.020Z,95930.03
2022-07-31T09:29:12.668Z,95930.78
2022-07-31T09:30:16.886Z,95918.41
2022-07-31T09:31:33.811Z,95935.38
2022-07-31T09:32:57.326Z,95937.91
2022-07-31T09:34:30.835Z,95929.53
2022-07-31T09:35:49.286Z,95933.38
2022-07-31T09:36:51.379Z,95927.28
2022-07-31T09:38:13.444Z,95919.19
2022-07-31T09:39:52.933Z,95934.16
2022-07-31T09:41:56.926Z,95922.25
2022-07-31T09:42:55.248Z,95922.25
2022-07-31T09:44:02.677Z,95922.53
2022-07-31T09:45:22.075Z,95920.50
2022-07-31T09:46:24.171Z,95922.81
2022-07-31T09:47:30.108Z,95917.00
2022-07-31T09:48:36.335Z,95923.63
2022-07-31T09:49:39.984Z,95922.34
2022-07-31T09:50:53.633Z,95925.41
2022-07-31T09:51:56.762Z,95930.22
2022-07-31T09:53:01.722Z,95927.94
2022-07-31T09:54:07.452Z,95924.66
2022-07-31T09:55:29.393Z,95920.84
2022-07-31T09:56:32.385Z,95923.34
2022-07-31T09:57:37.715Z,95917.78
2022-07-31T09:58:43.823Z,95918.81
2022-07-31T09:59:47.669Z,95916.78
2022-07-31T10:00:53.328Z,95919.84
2022-07-31T10:01:56.507Z,95916.56
2022-07-31T10:03:02.088Z,95912.78
2022-07-31T10:04:06.835Z,95915.31
2022-07-31T10:05:11.924Z,95917.19
2022-07-31T10:06:16.382Z,95914.38
2022-07-31T10:07:31.711Z,95920.22
2022-07-31T10:08:46.236Z,95921.00
2022-07-31T10:10:01.089Z,95916.19
2022-07-31T10:11:34.216Z,95916.19
2022-07-31T10:12:50.795Z,95912.63
2022-07-31T10:14:00.976Z,95918.47
2022-07-31T10:15:09.341Z,95916.44
2022-07-31T10:16:12.871Z,95915.69
2022-07-31T10:17:32.659Z,95912.41
2022-07-31T10:18:58.088Z,95912.16
2022-07-31T10:20:21.985Z,95920.50
2022-07-31T10:21:44.904Z,95917.72
2022-07-31T10:22:56.783Z,95913.38
2022-07-31T10:24:04.598Z,95911.88
2022-07-31T10:25:12.792Z,95915.91
2022-07-31T10:26:17.461Z,95912.84
2022-07-31T10:27:19.845Z,95910.06
2022-07-31T10:28:30.694Z,95908.06
2022-07-31T10:29:36.284Z,95916.41
2022-07-31T10:30:40.707Z,95918.41
2022-07-31T10:31:43.128Z,95905.75
2022-07-31T10:32:46.295Z,95908.81
2022-07-31T10:34:17.228Z,95912.84
2022-07-31T10:36:03.832Z,95911.31
2022-07-31T10:37:24.250Z,95914.56
2022-07-31T10:38:59.949Z,95913.81
2022-07-31T10:40:26.764Z,95913.81
2022-07-31T10:41:58.419Z,95912.31
2022-07-31T10:43:17.929Z,95912.31
2022-07-31T10:44:38.649Z,95905.47
2022-07-31T10:45:55.332Z,95906.72
2022-07-31T10:47:19.613Z,95911.78
2022-07-31T10:48:52.578Z,95909.31
2022-07-31T10:50:23.816Z,95911.31
2022-07-31T10:51:53.548Z,95907.28
2022-07-31T10:53:50.833Z,95910.06
2022-07-31T10:55:15.151Z,95916.66
2022-07-31T10:56:25.678Z,95913.88
2022-07-31T10:57:55.272Z,95914.66
2022-07-31T10:59:29.330Z,95907.06
2022-07-31T11:00:53.329Z,95911.34
2022-07-31T11:02:31.962Z,95910.13
2022-07-31T11:04:02.231Z,95901.00
2022-07-31T11:06:01.728Z,95903.53
2022-07-31T11:07:23.077Z,95898.72
2022-07-31T11:08:44.288Z,95896.22
2022-07-31T11:10:16.058Z,95902.56
2022-07-31T11:11:38.396Z,95903.59
2022-07-31T11:13:01.513Z,95902.59
2022-07-31T11:14:33.394Z,95892.47
2022-07-31T11:16:05.183Z,95896.28
2022-07-31T11:18:25.332Z,95893.50
2022-07-31T11:19:02.373Z,95892.25
2022-07-31T11:20:06.949Z,95883.88
2022-07-31T11:21:37.201Z,95883.38
2022-07-31T11:22:33.832Z,95879.34
2022-07-31T11:23:38.031Z,95884.66
2022-07-31T11:24:40.345Z,95883.69
2022-07-31T11:25:44.950Z,95882.41
2022-07-31T11:26:50.697Z,95888.25
2022-07-31T11:27:54.649Z,95880.66
2022-07-31T11:28:56.597Z,95887.00
2022-07-31T11:30:12.612Z,95891.31
2022-07-31T11:31:16.498Z,95875.34
2022-07-31T11:32:25.659Z,95876.09
2022-07-31T11:33:39.566Z,95879.16
2022-07-31T11:34:47.421Z,95874.34
2022-07-31T11:35:50.535Z,95875.88
2022-07-31T11:36:53.799Z,95878.19
2022-07-31T11:37:57.922Z,95872.59
2022-07-31T11:39:01.732Z,95874.13
2022-07-31T11:40:07.937Z,95876.41
2022-07-31T11:41:11.456Z,95883.50
2022-07-31T11:42:16.981Z,95873.09
2022-07-31T11:43:27.224Z,95870.59
2022-07-31T11:44:29.363Z,95869.59
2022-07-31T11:45:33.323Z,95871.13
2022-07-31T11:46:38.016Z,95876.97
2022-07-31T11:48:10.896Z,95868.84
2022-07-31T11:49:03.472Z,95876.22
2022-07-31T11:50:06.232Z,95879.28
2022-07-31T11:51:09.162Z,95874.22
2022-07-31T11:52:30.323Z,95878.78
2022-07-31T11:53:41.558Z,95877.78
2022-07-31T11:54:43.630Z,95868.16
2022-07-31T11:55:51.760Z,95873.00
2022-07-31T11:56:53.975Z,95868.66
2022-07-31T11:57:56.877Z,95871.97
2022-07-31T11:58:58.838Z,95867.63
2022-07-31T12:00:26.067Z,95871.69
2022-07-31T12:01:31.853Z,95874.97
2022-07-31T12:02:34.067Z,95869.41
2022-07-31T12:03:39.334Z,95862.31
2022-07-31T12:04:41.293Z,95865.59
2022-07-31T12:05:48.656Z,95865.59
2022-07-31T12:06:56.388Z,95865.59
2022-07-31T12:08:00.753Z,95862.53
2022-07-31T12:09:05.466Z,95868.88
2022-07-31T12:10:10.016Z,95863.28
2022-07-31T12:11:13.186Z,95862.53
2022-07-31T12:12:15.261Z,95856.97
2022-07-31T12:13:20.215Z,95856.19
2022-07-31T12:14:30.226Z,95856.97
2022-07-31T12:15:33.112Z,95856.97
2022-07-31T12:16:43.623Z,95856.97
2022-07-31T12:17:46.236Z,95848.09
2022-07-31T12:18:50.892Z,95851.16
2022-07-31T12:19:57.513Z,95851.91
2022-07-31T12:21:02.311Z,95847.84
2022-07-31T12:22:13.158Z,95850.91
2022-07-31T12:23:38.711Z,95848.38
2022-07-31T12:24:40.846Z,95852.44
2022-07-31T12:25:45.576Z,95855.47
2022-07-31T12:26:52.095Z,95860.28
2022-07-31T12:27:54.287Z,95852.66
2022-07-31T12:28:58.894Z,95849.13
2022-07-31T12:30:01.010Z,95854.72
2022-07-31T12:31:03.985Z,95848.38
2022-07-31T12:32:07.258Z,95857.00
2022-07-31T12:33:11.711Z,95849.88
2022-07-31T12:34:13.876Z,95852.66
2022-07-31T12:35:16.913Z,95851.44
2022-07-31T12:36:20.076Z,95849.88
2022-07-31T12:37:22.662Z,95841.50
2022-07-31T12:38:47.955Z,95847.09
2022-07-31T12:39:59.992Z,95848.38
2022-07-31T12:41:05.409Z,95847.63
2022-07-31T12:42:07.383Z,95849.88
2022-07-31T12:43:10.342Z,95847.09
2022-07-31T12:44:14.561Z,95844.31
2022-07-31T12:45:20.317Z,95854.50
2022-07-31T12:46:35.967Z,95849.69
2022-07-31T12:47:37.991Z,95849.19
2022-07-31T12:48:45.860Z,95846.41
2022-07-31T12:49:48.359Z,95843.88
2022-07-31T12:50:51.613Z,95844.63
2022-07-31T12:51:53.588Z,95845.38
2022-07-31T12:53:00.124Z,95846.16
2022-07-31T12:54:04.714Z,95843.63
2022-07-31T12:55:08.469Z,95846.66
2022-07-31T12:56:11.260Z,95841.84
2022-07-31T12:57:14.809Z,95837.81
2022-07-31T12:58:16.717Z,95837.03
2022-07-31T12:59:19.679Z,95831.44
2022-07-31T13:00:23.497Z,95829.44
2022-07-31T13:01:26.480Z,95826.66
2022-07-31T13:02:29.425Z,95824.63
2022-07-31T13:03:38.959Z,95824.88
2022-07-31T13:04:48.063Z,95817.53
2022-07-31T13:05:52.289Z,95826.91
2022-07-31T13:06:54.462Z,95830.72
2022-07-31T13:07:57.589Z,95819.56
2022-07-31T13:08:59.637Z,95825.13
2022-07-31T13:10:20.750Z,95822.88
2022-07-31T13:11:26.098Z,95818.78
2022-07-31T13:12:28.071Z,95819.31
2022-07-31T13:13:31.074Z,95818.03
2022-07-31T13:14:34.665Z,95814.50
2022-07-31T13:15:37.556Z,95814.50
2022-07-31T13:16:39.531Z,95820.84
2022-07-31T13:17:47.864Z,95810.44
2022-07-31T13:18:53.546Z,95810.44
2022-07-31T13:19:55.795Z,95806.88
2022-07-31T13:20:58.638Z,95805.63
2022-07-31T13:22:00.644Z,95817.53
2022-07-31T13:23:05.218Z,95803.84
2022-07-31T13:24:09.204Z,95804.34
2022-07-31T13:25:13.737Z,95806.38
2022-07-31T13:26:15.781Z,95801.28
2022-07-31T13:27:19.921Z,95800.53